LIMF/TRN METAR and TAF weather

Enter ICAO airport designator
Station Type Date Time Source
LIMF METAR 2022/06/29 00:20 UTC NOAA

LIMF 290020Z 36007KT 9999 BKN140 18/18 Q1014


Station Type Date Time Source
LIMF Decoded METAR 2022/06/29 00:20 UTC NOAA

Torino / Caselle, Italy (LIMF) 45-13N 007-39E 287M
Jun 28, 2022 - 08:20 PM EDT / 2022.06.29 0020 UTC
Wind: from the N (360 degrees) at 8 MPH (7 KT):0
Visibility: greater than 7 mile(s):0
Sky conditions: mostly cloudy
Temperature: 64 F (18 C)
Dew Point: 64 F (18 C)
Relative Humidity: 100%
Pressure (altimeter): 29.94 in. Hg (1014 hPa)
ob: LIMF 290020Z 36007KT 9999 BKN140 18/18 Q1014
cycle: 0

Station Type Date Time Source
LIMF TAF 2022/06/28 18:24 UTC NOAA

TAF LIMF 281700Z 2818/2918 34010KT 9999 BKN050
TEMPO 2818/2820 34015G25KT 3000 TSRA
BECMG 2820/2822 VRB05KT

Example: see airport list